Terminal Aerodrome Forecast
Issued by NWS Jacksonville, FL

Home | Current Version | Previous Version | Text Only | Print | Product List | Glossary On
Versions: 1 2 3 4 5 6 7 8 9 10 11 12 13 14 15 16 17 18 19 20 21 22 23 24 25 26 27 28 29 30
000
FTUS42 KJAX 180904 AAB
TAFSSI
TAF AMD
KSSI 180904Z 1809/1906 16006KT P6SM VCSH SCT015 BKN025
     FM181300 21006KT P6SM VCSH BKN015 BKN025
     FM181700 16010KT P6SM VCTS BKN030CB
      TEMPO 1818/1822 VRB15G25KT 3SM TSRA BKN020CB
     FM190000 23006KT P6SM VCSH SCT025 BKN100 BKN200=

USA.gov is the U.S. government's official web portal to all federal, state and local government web resources and services.